New York, NY

12:56 PM EDT on July 23, 2017 (GMT -0400)
Roof of a 1 story trailer | | Change Station

Elev 0 ft 40.75 °N, 74.01 °W | Updated 2 seconds ago

Haze
Haze
73.8 °F
Feels Like 74 °F
N
3.3
Wind Variable Wind from ENE
Gusts 5.0 mph

Today
High -- | Low -- °F
--% Chance of Precip.
Yesterday
High -- | Low -- °F
Precip. -- in
Pressure 29.84 in
Visibility 6.0 miles
Clouds Few 2300 ft
Mostly Cloudy 2900 ft
Overcast 5000 ft
Heat Index 74 °F
Dew Point 68 °F
Humidity 83%
Rainfall 0.00 in
Snow Depth Not available.
5:44 AM 8:20 PM
New Moon, 0% visible
METAR KNYC 231651Z AUTO 00000KT 6SM HZ FEW023 BKN029 OVC050 23/21 A2986 RMK AO2 SLP103 T02330206
Pressure 29.84 in
Visibility 6.0 miles
Clouds Few 2300 ft
Mostly Cloudy 2900 ft
Overcast 5000 ft
Heat Index 74 °F
Dew Point 68 °F
Humidity 83%
Rainfall 0.00 in
Snow Depth Not available.
5:44 AM 8:20 PM
New Moon, 0% visible
METAR KNYC 231651Z AUTO 00000KT 6SM HZ FEW023 BKN029 OVC050 23/21 A2986 RMK AO2 SLP103 T02330206

Get Severe Weather Alerts

Thanks for signing up!

Be on the lookout for a verification email in your inbox.

You'll start receiving the daily forecast at 6 AM.

×

10-Day Weather Forecast

Almanac

Astronomy

Jul. 23, 2017 Rise Set
Actual Time
Civil Twilight
Nautical Twilight
Astronomical Twilight
Moon
Length of Visible Light
Length of Day
Tomorrow will be .
, % of the Moon is Illuminated

Today's Extremes

State Highs State Lows

Community

WunderPhotos

Category 6

Welcome to Category 6. This is the collective home for Weather Underground's featured writeups by Dr. Jeff Masters (right), Bob Henson (left), Chris Burt, and other regular contributors.

Nearby

Air Quality

  Air Quality AQ Index Pollutant
Not available.

Snow Depth

Station Depth Elevation

Earthquake Activity

City Distance Mag. Time & Date
Minimum magnitude displayed is 2.5.

Coastal Water Temperatures

Place Temperature

Stations

Nearby Weather Stations

Station Location Temp. Windchill Dew Point Humidity Wind Precip. Elev Updated Type
                   

Watches & Warnings

There are currently no watches in effect.